Time;durP1;ratioP1;P1;durP2;ratioP2;P2;SDS_P1;SDS_P2;PMS_P1;PMS_P2;Temp;Humidity;BMP_temperature;BMP_pressure;BME280_temperature;BME280_humidity;BME280_pressure;Samples;Min_cycle;Max_cycle;Signal;HPM_P1;HPM_P2
2021/12/12 00:00:35;;;;;;;24.07;17.53;;;11.00;99.90;;;;;;5090908;28;20812;-70
2021/12/12 00:03:14;;;;;;;23.70;18.53;;;11.00;99.90;;;;;;5090514;28;20455;-71
2021/12/12 00:05:45;;;;;;;15.73;12.43;;;11.00;99.90;;;;;;5091278;28;20811;-68
2021/12/12 00:08:13;;;;;;;14.20;11.20;;;11.10;99.90;;;;;;5090953;28;20468;-68
2021/12/12 00:10:44;;;;;;;13.70;9.40;;;10.90;99.90;;;;;;5091079;28;20452;-68
2021/12/12 00:13:18;;;;;;;10.30;7.40;;;10.60;99.90;;;;;;5089970;28;20479;-69
2021/12/12 00:15:45;;;;;;;11.73;7.83;;;10.60;99.90;;;;;;5080970;28;20486;-66
2021/12/12 00:18:12;;;;;;;13.13;9.47;;;10.60;99.90;;;;;;5078819;28;20541;-69
2021/12/12 00:20:40;;;;;;;12.47;8.40;;;10.60;99.90;;;;;;5071091;28;20457;-68
2021/12/12 00:23:08;;;;;;;10.50;8.17;;;10.30;99.90;;;;;;5091103;28;20452;-71
2021/12/12 00:25:39;;;;;;;9.90;8.23;;;10.40;99.90;;;;;;5091236;28;20444;-68
2021/12/12 00:28:07;;;;;;;11.23;8.10;;;10.30;99.90;;;;;;5091326;28;20468;-67
2021/12/12 00:30:37;;;;;;;10.20;7.60;;;10.30;99.90;;;;;;5093291;28;20485;-65
2021/12/12 00:33:05;;;;;;;9.63;7.70;;;10.30;99.90;;;;;;5095754;28;20467;-65
2021/12/12 00:35:33;;;;;;;9.20;6.73;;;10.40;99.90;;;;;;5095179;28;20492;-68
2021/12/12 00:38:05;;;;;;;7.90;5.77;;;10.40;99.90;;;;;;5096856;28;20472;-67
2021/12/12 00:40:35;;;;;;;8.80;5.50;;;10.40;99.90;;;;;;5091181;28;20453;-67
2021/12/12 00:43:06;;;;;;;7.13;4.80;;;10.40;99.90;;;;;;5074887;28;20456;-68
2021/12/12 00:45:36;;;;;;;7.53;5.10;;;10.40;99.90;;;;;;5084006;28;20454;-69
2021/12/12 00:48:04;;;;;;;8.90;5.50;;;10.40;99.90;;;;;;5074097;28;20468;-67
2021/12/12 00:50:36;;;;;;;8.23;4.97;;;10.20;99.90;;;;;;5090151;28;20506;-68
2021/12/12 00:53:06;;;;;;;7.30;5.13;;;10.10;99.90;;;;;;5090760;28;20569;-67
2021/12/12 00:55:37;;;;;;;6.47;3.90;;;10.20;99.90;;;;;;5090594;28;20488;-69
2021/12/12 00:58:05;;;;;;;6.90;4.10;;;10.30;99.90;;;;;;5089869;28;20525;-67
2021/12/12 01:00:36;;;;;;;5.13;3.43;;;10.30;99.90;;;;;;5090024;28;20460;-64
2021/12/12 01:03:08;;;;;;;6.97;3.90;;;10.20;99.90;;;;;;5090964;28;20452;-70
2021/12/12 01:05:36;;;;;;;6.57;3.03;;;10.30;99.90;;;;;;5090495;28;20539;-69
2021/12/12 01:08:05;;;;;;;5.10;3.63;;;10.20;99.90;;;;;;5090659;28;20480;-69
2021/12/12 01:10:37;;;;;;;8.23;3.47;;;10.30;99.90;;;;;;5090723;28;20493;-69
2021/12/12 01:13:07;;;;;;;10.77;4.83;;;10.30;99.90;;;;;;5090059;28;20835;-69
2021/12/12 01:15:37;;;;;;;6.93;4.50;;;10.10;99.90;;;;;;5090259;28;21002;-69
2021/12/12 01:18:09;;;;;;;8.47;4.90;;;10.10;99.90;;;;;;5090473;28;20490;-69
2021/12/12 01:20:40;;;;;;;7.47;5.57;;;10.10;99.90;;;;;;5090466;28;20448;-69
2021/12/12 01:23:12;;;;;;;8.60;5.90;;;9.90;99.90;;;;;;5069594;28;20518;-69
2021/12/12 01:25:44;;;;;;;8.20;5.63;;;11.00;99.90;;;;;;5070125;28;20453;-69
2021/12/12 01:28:14;;;;;;;9.27;5.70;;;9.50;99.90;;;;;;5070016;28;20537;-69
2021/12/12 01:30:42;;;;;;;7.80;5.30;;;9.60;99.90;;;;;;5069834;28;20460;-69
2021/12/12 01:33:18;;;;;;;8.23;5.77;;;9.60;99.90;;;;;;5069583;28;20940;-69
2021/12/12 01:35:45;;;;;;;8.03;6.20;;;9.50;99.90;;;;;;5069903;28;20488;-69
2021/12/12 01:40:59;;;;;;;9.43;7.23;;;9.50;99.90;;;;;;5069901;28;20436;-69
2021/12/12 01:43:29;;;;;;;7.70;5.90;;;9.70;99.90;;;;;;5069504;28;20453;-69
2021/12/12 01:46:04;;;;;;;7.87;5.70;;;9.70;99.90;;;;;;5069040;28;20874;-69
2021/12/12 01:48:37;;;;;;;9.37;5.70;;;9.60;99.90;;;;;;5069456;28;20514;-69
2021/12/12 01:51:08;;;;;;;8.83;5.70;;;9.70;99.90;;;;;;5069782;28;20523;-69
2021/12/12 01:53:38;;;;;;;8.17;4.90;;;9.70;99.90;;;;;;5069088;28;20461;-69
2021/12/12 01:56:11;;;;;;;7.23;5.00;;;9.60;99.90;;;;;;5069671;28;20856;-69
2021/12/12 01:58:40;;;;;;;6.60;4.77;;;9.70;99.90;;;;;;5069473;28;20461;-69
2021/12/12 02:01:11;;;;;;;8.70;5.27;;;9.70;99.90;;;;;;5069148;28;20506;-69
2021/12/12 02:03:46;;;;;;;8.80;5.47;;;9.60;99.90;;;;;;5069368;28;20457;-69
2021/12/12 02:06:15;;;;;;;7.27;4.90;;;9.50;99.90;;;;;;5069483;28;20519;-69
2021/12/12 02:08:43;;;;;;;7.67;6.07;;;9.40;99.90;;;;;;5069209;28;20464;-69
2021/12/12 02:11:17;;;;;;;7.03;4.57;;;9.50;99.90;;;;;;5068851;28;20785;-69
2021/12/12 02:13:48;;;;;;;10.30;6.80;;;9.40;99.90;;;;;;5069021;28;20491;-69
2021/12/12 02:16:17;;;;;;;7.70;4.57;;;9.30;99.90;;;;;;5068873;28;20488;-69
2021/12/12 02:18:50;;;;;;;10.37;5.87;;;9.40;99.90;;;;;;5069278;28;20491;-70
2021/12/12 02:21:24;;;;;;;5.97;4.27;;;9.40;99.90;;;;;;5074020;28;20877;-70
2021/12/12 02:24:23;;;;;;;7.40;4.20;;;9.30;99.90;;;;;;5089197;28;20483;-69
2021/12/12 02:35:15;;;;;;;4.47;2.60;;;8.30;99.90;;;;;;5088773;28;20539;-69
2021/12/12 02:37:44;;;;;;;4.73;2.73;;;8.50;99.90;;;;;;5089220;28;20478;-69
2021/12/12 02:40:19;;;;;;;4.70;2.87;;;8.60;99.90;;;;;;5089060;28;20492;-69
2021/12/12 02:42:47;;;;;;;4.23;2.53;;;8.50;99.90;;;;;;5089052;28;20499;-69
2021/12/12 02:45:17;;;;;;;4.10;2.03;;;9.50;99.90;;;;;;5088897;28;20479;-69
2021/12/12 02:47:45;;;;;;;3.67;1.80;;;8.60;99.90;;;;;;5089188;28;20459;-69
2021/12/12 02:50:16;;;;;;;4.53;1.70;;;8.50;99.90;;;;;;5089147;28;20460;-69
2021/12/12 02:52:46;;;;;;;8.93;1.73;;;8.50;99.90;;;;;;5088826;28;20466;-68
2021/12/12 02:55:18;;;;;;;3.90;1.77;;;8.50;99.90;;;;;;5088771;28;20575;-68
2021/12/12 02:57:45;;;;;;;3.40;1.63;;;8.60;99.90;;;;;;5089010;28;20482;-69
2021/12/12 03:00:19;;;;;;;3.20;1.47;;;8.50;99.90;;;;;;5088575;28;20455;-70
2021/12/12 03:02:48;;;;;;;3.73;1.70;;;8.50;99.90;;;;;;5089152;28;21031;-69
2021/12/12 03:05:18;;;;;;;3.43;1.50;;;8.50;99.90;;;;;;5088914;28;20475;-70
2021/12/12 03:07:45;;;;;;;3.07;1.13;;;8.70;99.90;;;;;;5089095;28;20452;-69
2021/12/12 03:10:21;;;;;;;3.07;1.27;;;8.60;99.90;;;;;;5089023;28;20455;-69
2021/12/12 03:12:48;;;;;;;3.43;1.23;;;8.60;99.90;;;;;;5088046;28;20982;-69
2021/12/12 03:15:20;;;;;;;4.43;1.10;;;8.70;99.90;;;;;;5088918;28;20905;-69
2021/12/12 03:17:50;;;;;;;3.20;1.10;;;8.70;99.90;;;;;;5089022;28;20463;-69
2021/12/12 03:20:24;;;;;;;3.40;1.40;;;8.60;99.90;;;;;;5088749;28;20448;-69
2021/12/12 03:22:54;;;;;;;3.20;1.33;;;8.50;99.90;;;;;;5088682;28;20498;-69
2021/12/12 03:25:23;;;;;;;3.37;1.37;;;8.40;99.90;;;;;;5092175;28;20877;-70
2021/12/12 03:27:51;;;;;;;3.60;1.20;;;8.40;99.90;;;;;;5091126;28;20603;-69
2021/12/12 03:30:22;;;;;;;3.30;1.50;;;8.30;99.90;;;;;;5092042;28;20509;-69
2021/12/12 03:32:50;;;;;;;4.43;1.70;;;8.30;99.90;;;;;;5092197;28;20447;-69
2021/12/12 03:35:18;;;;;;;3.30;1.40;;;8.20;99.90;;;;;;5092319;28;20524;-69
2021/12/12 03:37:45;;;;;;;3.10;1.27;;;8.10;99.90;;;;;;5090902;28;20462;-69
2021/12/12 03:40:17;;;;;;;3.00;1.30;;;8.20;99.90;;;;;;5092336;28;20502;-69
2021/12/12 03:42:48;;;;;;;3.50;1.30;;;8.20;99.90;;;;;;5091695;28;20454;-69
2021/12/12 03:45:17;;;;;;;3.60;1.30;;;8.10;99.90;;;;;;5091529;28;20466;-69
2021/12/12 03:47:49;;;;;;;3.80;1.40;;;8.10;99.90;;;;;;5092188;28;20509;-70
2021/12/12 03:50:22;;;;;;;2.80;1.23;;;8.00;99.90;;;;;;5092048;28;20524;-69
2021/12/12 03:52:50;;;;;;;4.23;1.83;;;8.00;99.90;;;;;;5092315;28;20455;-68
2021/12/12 03:55:17;;;;;;;3.30;1.50;;;8.00;99.90;;;;;;5091911;28;20575;-69
2021/12/12 03:57:47;;;;;;;3.10;1.47;;;8.10;99.90;;;;;;5091994;28;20593;-69
2021/12/12 04:00:18;;;;;;;3.30;1.33;;;8.30;99.90;;;;;;5091887;28;20458;-69
2021/12/12 04:02:45;;;;;;;3.33;1.23;;;8.30;99.90;;;;;;5091601;28;21000;-69
2021/12/12 04:05:13;;;;;;;4.03;1.60;;;8.20;99.90;;;;;;5091867;28;20519;-69
2021/12/12 04:07:40;;;;;;;3.50;1.83;;;8.20;99.90;;;;;;5091820;28;20467;-69
2021/12/12 04:10:10;;;;;;;4.00;1.43;;;8.20;99.90;;;;;;5092161;28;20456;-69
2021/12/12 04:12:37;;;;;;;3.10;1.20;;;8.20;99.90;;;;;;5090920;28;20487;-69
2021/12/12 04:15:07;;;;;;;3.30;1.67;;;8.20;99.90;;;;;;5091530;28;20467;-69
2021/12/12 04:17:34;;;;;;;3.10;1.20;;;8.30;99.90;;;;;;5091696;28;20849;-69
2021/12/12 04:20:12;;;;;;;4.70;1.93;;;8.40;99.90;;;;;;5091748;28;20455;-69
2021/12/12 04:22:40;;;;;;;3.77;2.07;;;8.40;99.90;;;;;;5091060;28;20455;-69
2021/12/12 04:25:08;;;;;;;4.87;2.33;;;8.30;99.90;;;;;;5091372;28;20468;-69
2021/12/12 04:27:37;;;;;;;3.90;1.40;;;8.20;99.90;;;;;;5091239;28;20931;-69
2021/12/12 04:30:07;;;;;;;3.43;1.77;;;8.00;99.90;;;;;;5090915;28;20517;-69
2021/12/12 04:32:35;;;;;;;3.37;1.70;;;7.90;99.90;;;;;;5091148;28;20459;-69
2021/12/12 04:35:06;;;;;;;3.07;1.40;;;7.90;99.90;;;;;;5088829;28;20556;-68
2021/12/12 04:37:34;;;;;;;3.10;1.13;;;8.10;99.90;;;;;;5091254;28;20466;-68
2021/12/12 04:40:03;;;;;;;3.07;1.33;;;8.10;99.90;;;;;;5091238;28;20516;-69
2021/12/12 04:42:32;;;;;;;5.23;1.37;;;8.20;99.90;;;;;;5090823;28;20455;-68
2021/12/12 04:45:16;;;;;;;3.63;1.43;;;8.00;99.90;;;;;;5090642;28;20479;-69
2021/12/12 04:50:39;;;;;;;3.70;1.60;;;7.70;99.90;;;;;;5091131;28;20442;-68
2021/12/12 04:53:12;;;;;;;3.73;1.37;;;7.90;99.90;;;;;;5091088;28;21096;-68
2021/12/12 04:55:55;;;;;;;4.27;1.83;;;7.90;99.90;;;;;;5090815;28;20578;-69
2021/12/12 04:58:29;;;;;;;3.90;1.70;;;7.80;99.90;;;;;;5090592;28;20503;-69
2021/12/12 05:01:03;;;;;;;3.20;1.60;;;7.70;99.90;;;;;;5090876;28;20463;-69
2021/12/12 05:03:38;;;;;;;3.37;1.80;;;7.60;99.90;;;;;;5090673;28;20455;-69
2021/12/12 05:06:12;;;;;;;3.10;1.23;;;7.60;99.90;;;;;;5090283;28;20470;-69
2021/12/12 05:08:44;;;;;;;6.67;1.33;;;7.50;99.90;;;;;;5090784;28;20549;-69
2021/12/12 05:11:20;;;;;;;6.20;1.20;;;7.40;99.90;;;;;;5090437;28;20839;-69
2021/12/12 05:13:51;;;;;;;2.90;1.17;;;7.40;99.90;;;;;;5089707;28;20563;-69
2021/12/12 05:16:25;;;;;;;3.23;1.47;;;7.30;99.90;;;;;;5090170;28;20577;-70
2021/12/12 05:19:01;;;;;;;4.27;1.50;;;7.30;99.90;;;;;;5090413;28;20494;-72
2021/12/12 05:21:32;;;;;;;7.73;1.77;;;7.30;99.90;;;;;;5090135;28;20577;-71
2021/12/12 05:24:03;;;;;;;3.20;1.10;;;7.40;99.90;;;;;;5090386;28;20463;-71
2021/12/12 05:26:34;;;;;;;2.97;1.17;;;7.50;99.90;;;;;;5090442;28;20955;-70
2021/12/12 05:29:04;;;;;;;2.70;0.90;;;7.30;99.90;;;;;;5090343;28;20524;-69
2021/12/12 05:31:34;;;;;;;2.80;1.10;;;7.20;99.90;;;;;;5089942;28;20964;-69
2021/12/12 05:34:02;;;;;;;2.83;1.03;;;7.20;99.90;;;;;;5090044;28;20511;-72
2021/12/12 05:36:30;;;;;;;3.67;1.00;;;7.10;99.90;;;;;;5089856;28;21017;-71
2021/12/12 05:38:59;;;;;;;2.53;0.83;;;7.00;99.90;;;;;;5090078;28;20459;-72
2021/12/12 05:41:26;;;;;;;3.20;1.00;;;6.90;99.90;;;;;;5090017;28;21003;-72
2021/12/12 05:43:57;;;;;;;3.57;1.10;;;6.90;99.90;;;;;;5089617;28;20446;-69
2021/12/12 05:46:26;;;;;;;2.47;0.73;;;6.90;99.90;;;;;;5089042;28;20967;-73
2021/12/12 05:48:55;;;;;;;3.03;0.97;;;6.70;99.90;;;;;;5089672;28;20445;-70
2021/12/12 05:51:23;;;;;;;3.60;1.20;;;6.70;99.90;;;;;;5089341;28;20455;-71
2021/12/12 05:53:51;;;;;;;3.00;1.00;;;6.60;99.90;;;;;;5089630;28;20455;-70
2021/12/12 05:56:22;;;;;;;3.03;1.03;;;6.60;99.90;;;;;;5089248;28;20493;-69
2021/12/12 05:58:49;;;;;;;4.90;1.60;;;6.70;99.90;;;;;;5089907;28;20943;-69
2021/12/12 06:01:16;;;;;;;3.10;0.90;;;6.80;99.90;;;;;;5089743;28;20502;-71
2021/12/12 06:03:43;;;;;;;3.17;1.00;;;6.80;99.90;;;;;;5089461;28;20846;-69
2021/12/12 06:06:16;;;;;;;3.00;0.80;;;6.70;99.90;;;;;;5090289;28;20457;-72
2021/12/12 06:08:45;;;;;;;2.97;0.70;;;6.60;99.90;;;;;;5091081;28;20556;-70
2021/12/12 06:11:15;;;;;;;2.80;0.90;;;6.40;99.90;;;;;;5090710;28;20578;-70
2021/12/12 06:13:43;;;;;;;3.03;1.10;;;6.40;99.90;;;;;;5090826;28;20480;-69
2021/12/12 06:16:18;;;;;;;3.10;1.10;;;6.30;99.90;;;;;;5090202;28;20485;-70
2021/12/12 06:18:46;;;;;;;3.10;0.90;;;6.10;99.90;;;;;;5089583;28;20454;-71
2021/12/12 06:21:16;;;;;;;2.97;1.00;;;5.90;99.90;;;;;;5089180;28;20445;-70
2021/12/12 06:23:43;;;;;;;2.70;0.83;;;5.70;99.90;;;;;;5089444;28;20452;-69
2021/12/12 06:26:10;;;;;;;3.80;1.50;;;5.70;99.90;;;;;;5089235;28;20475;-71
2021/12/12 06:28:40;;;;;;;3.17;1.23;;;5.80;99.90;;;;;;5089118;28;20456;-69
2021/12/12 06:31:10;;;;;;;2.80;1.07;;;5.80;99.90;;;;;;5089409;28;20524;-71
2021/12/12 06:33:39;;;;;;;3.93;1.20;;;5.80;99.90;;;;;;5087719;28;20454;-71
2021/12/12 06:36:07;;;;;;;3.10;1.27;;;5.80;99.90;;;;;;5088954;28;20485;-72
2021/12/12 06:38:37;;;;;;;3.53;1.43;;;6.10;99.90;;;;;;5089264;28;20562;-72
2021/12/12 06:41:04;;;;;;;3.30;1.17;;;6.30;99.90;;;;;;5089086;28;20893;-70
2021/12/12 06:43:32;;;;;;;4.13;1.70;;;6.40;99.90;;;;;;5089276;28;20448;-69
2021/12/12 06:46:00;;;;;;;3.30;1.30;;;6.20;99.90;;;;;;5089334;28;20449;-70
2021/12/12 06:48:28;;;;;;;3.33;1.17;;;6.40;99.90;;;;;;5089007;28;20451;-73
2021/12/12 06:50:56;;;;;;;3.00;1.07;;;6.50;99.90;;;;;;5088956;28;20934;-71
2021/12/12 06:53:26;;;;;;;3.67;1.00;;;6.80;99.90;;;;;;5088999;28;20942;-73
2021/12/12 06:55:56;;;;;;;3.17;0.73;;;6.70;99.90;;;;;;5088926;28;20541;-72
2021/12/12 06:58:25;;;;;;;3.10;1.10;;;6.50;99.90;;;;;;5091014;28;20945;-70
2021/12/12 07:00:55;;;;;;;3.00;0.97;;;6.20;99.90;;;;;;5093022;28;20442;-69
2021/12/12 07:03:22;;;;;;;2.70;0.70;;;6.30;99.90;;;;;;5092689;28;20453;-69
2021/12/12 07:05:50;;;;;;;2.57;0.90;;;6.30;99.90;;;;;;5092791;28;20522;-70
2021/12/12 07:08:18;;;;;;;3.60;0.90;;;6.50;99.90;;;;;;5093214;28;20507;-69
2021/12/12 07:10:45;;;;;;;2.70;1.00;;;6.70;99.90;;;;;;5093222;28;20822;-71
2021/12/12 07:13:14;;;;;;;3.03;1.10;;;6.80;99.90;;;;;;5092301;28;20990;-72
2021/12/12 07:15:44;;;;;;;3.73;1.50;;;6.80;99.90;;;;;;5092896;28;20504;-72
2021/12/12 07:18:14;;;;;;;3.90;1.77;;;6.60;99.90;;;;;;5092752;28;20546;-73
2021/12/12 07:20:43;;;;;;;9.67;1.47;;;6.50;99.90;;;;;;5093130;28;20448;-72
2021/12/12 07:23:12;;;;;;;3.37;1.20;;;6.40;99.90;;;;;;5091525;28;20472;-69
2021/12/12 07:25:41;;;;;;;4.50;1.33;;;6.40;99.90;;;;;;5092713;28;20519;-69
2021/12/12 07:28:08;;;;;;;3.00;1.20;;;6.10;99.90;;;;;;5092554;28;20466;-69
2021/12/12 07:30:38;;;;;;;3.37;1.43;;;5.80;99.90;;;;;;5092559;28;20449;-71
2021/12/12 07:33:05;;;;;;;5.13;2.17;;;5.90;99.90;;;;;;5092536;28;21189;-71
2021/12/12 07:35:34;;;;;;;3.00;1.27;;;6.00;99.90;;;;;;5092510;28;20522;-69
2021/12/12 07:38:06;;;;;;;3.97;1.43;;;6.20;99.90;;;;;;5092477;28;20492;-71
2021/12/12 07:40:33;;;;;;;3.00;1.30;;;6.30;99.90;;;;;;5092384;28;20466;-69
2021/12/12 07:43:01;;;;;;;3.47;1.40;;;6.60;99.90;;;;;;5092075;28;21012;-70
2021/12/12 07:45:28;;;;;;;3.40;1.17;;;6.70;99.90;;;;;;5092090;28;20540;-71
2021/12/12 07:47:57;;;;;;;3.40;1.63;;;6.70;99.90;;;;;;5091950;28;20528;-69
2021/12/12 07:50:27;;;;;;;3.10;1.10;;;6.70;99.90;;;;;;5092539;28;20994;-71
2021/12/12 07:52:55;;;;;;;2.90;1.00;;;6.60;99.90;;;;;;5092421;28;20964;-70
2021/12/12 07:55:23;;;;;;;3.10;1.40;;;6.40;99.90;;;;;;5091941;28;20929;-72
2021/12/12 07:57:51;;;;;;;4.90;1.50;;;6.30;99.90;;;;;;5091862;28;20492;-71
2021/12/12 08:00:22;;;;;;;3.40;1.33;;;6.20;99.90;;;;;;5092046;28;20457;-71
2021/12/12 08:02:51;;;;;;;3.03;1.20;;;6.30;99.90;;;;;;5091989;28;20448;-71
2021/12/12 08:05:21;;;;;;;3.70;1.40;;;6.50;99.90;;;;;;5092037;28;20838;-73
2021/12/12 08:07:49;;;;;;;6.97;1.53;;;6.50;99.90;;;;;;5091458;28;21018;-70
2021/12/12 08:10:18;;;;;;;3.10;1.40;;;6.80;99.90;;;;;;5091092;28;20864;-71
2021/12/12 08:12:46;;;;;;;3.50;2.00;;;7.20;99.90;;;;;;5091440;28;20599;-74
2021/12/12 08:15:14;;;;;;;4.43;2.00;;;7.40;99.90;;;;;;5092031;28;20461;-71
2021/12/12 08:17:42;;;;;;;5.37;2.43;;;7.60;99.90;;;;;;5091479;28;20500;-70
2021/12/12 08:20:13;;;;;;;5.17;2.60;;;7.80;99.90;;;;;;5091622;28;20534;-69
2021/12/12 08:22:42;;;;;;;5.60;1.80;;;7.60;99.90;;;;;;5090877;28;20454;-70
2021/12/12 08:25:12;;;;;;;5.67;2.43;;;7.70;99.90;;;;;;5091247;28;20912;-69
2021/12/12 08:27:40;;;;;;;3.40;1.40;;;7.70;99.90;;;;;;5091445;28;21036;-69
2021/12/12 08:30:09;;;;;;;3.70;1.53;;;7.70;99.90;;;;;;5091407;28;20455;-69
2021/12/12 08:32:37;;;;;;;3.60;1.87;;;7.80;99.90;;;;;;5090875;28;20504;-69
2021/12/12 08:35:06;;;;;;;3.50;1.50;;;7.60;99.90;;;;;;5090879;28;20450;-69
2021/12/12 08:37:33;;;;;;;4.17;1.60;;;7.30;99.90;;;;;;5091155;28;20494;-70
2021/12/12 08:40:04;;;;;;;5.13;1.77;;;7.30;99.90;;;;;;5090754;28;20456;-68
2021/12/12 08:42:31;;;;;;;3.00;1.10;;;7.50;99.90;;;;;;5091424;28;20516;-72
2021/12/12 08:45:00;;;;;;;3.30;1.70;;;7.40;99.90;;;;;;5091264;28;20536;-72
2021/12/12 08:47:28;;;;;;;4.90;1.80;;;7.20;99.90;;;;;;5089309;28;20963;-73
2021/12/12 08:49:55;;;;;;;4.50;1.60;;;7.30;99.90;;;;;;5091032;28;20453;-74
2021/12/12 08:52:28;;;;;;;3.80;1.80;;;7.50;99.90;;;;;;5090764;28;20865;-72
2021/12/12 08:54:55;;;;;;;3.73;1.60;;;7.70;99.90;;;;;;5091495;28;20559;-71
2021/12/12 08:57:34;;;;;;;3.63;1.67;;;7.80;99.90;;;;;;5095724;28;20493;-72
2021/12/12 09:00:07;;;;;;;3.83;1.90;;;7.40;99.90;;;;;;5095011;28;20974;-72
2021/12/12 09:02:34;;;;;;;4.13;1.70;;;7.30;99.90;;;;;;5096184;28;20466;-70
2021/12/12 09:05:06;;;;;;;4.10;1.47;;;7.20;99.90;;;;;;5091146;28;20507;-72
2021/12/12 09:07:37;;;;;;;4.47;1.77;;;7.20;99.90;;;;;;5090927;28;20530;-74
2021/12/12 09:10:09;;;;;;;6.70;1.77;;;7.40;99.90;;;;;;5090722;28;20502;-72
2021/12/12 09:12:42;;;;;;;4.53;1.37;;;7.30;99.90;;;;;;5090241;28;20494;-72
2021/12/12 09:15:14;;;;;;;4.73;1.90;;;7.10;99.90;;;;;;5090522;28;20464;-74
2021/12/12 09:17:46;;;;;;;4.40;2.30;;;7.00;99.90;;;;;;5090582;28;20818;-73
2021/12/12 09:20:19;;;;;;;3.63;1.80;;;7.10;99.90;;;;;;5090416;28;20546;-71
2021/12/12 09:22:59;;;;;;;4.17;1.87;;;7.00;99.90;;;;;;5089115;28;20456;-72
2021/12/12 09:25:36;;;;;;;3.80;2.10;;;6.70;99.90;;;;;;5090201;28;20492;-73
2021/12/12 09:28:10;;;;;;;5.20;1.90;;;6.80;99.90;;;;;;5090643;28;20481;-75
2021/12/12 09:30:37;;;;;;;4.63;2.30;;;6.80;99.90;;;;;;5090786;28;20451;-72
2021/12/12 09:33:12;;;;;;;3.70;1.77;;;6.70;99.90;;;;;;5089846;28;20910;-71
2021/12/12 09:35:46;;;;;;;3.60;1.67;;;6.70;99.90;;;;;;5090103;28;20494;-68
2021/12/12 09:38:18;;;;;;;3.43;1.83;;;6.60;99.90;;;;;;5089901;28;20857;-68
2021/12/12 09:41:14;;;;;;;3.53;2.10;;;6.50;99.90;;;;;;5089970;28;20991;-74
2021/12/12 09:44:06;;;;;;;3.80;1.90;;;6.40;99.90;;;;;;5088798;28;20467;-73
2021/12/12 09:46:59;;;;;;;4.30;2.30;;;6.40;99.90;;;;;;5089893;28;20475;-71
2021/12/12 09:52:52;;;;;;;5.07;2.53;;;6.30;99.90;;;;;;5089895;28;20862;-70
2021/12/12 09:55:27;;;;;;;4.67;2.57;;;6.40;99.90;;;;;;5090052;28;20537;-70
2021/12/12 09:57:59;;;;;;;4.80;2.47;;;6.40;99.90;;;;;;5089736;28;20481;-67
2021/12/12 10:00:37;;;;;;;3.60;1.87;;;6.20;99.90;;;;;;5090005;28;20890;-67
2021/12/12 10:03:14;;;;;;;3.73;2.13;;;6.10;99.90;;;;;;5089503;28;20771;-66
2021/12/12 10:06:02;;;;;;;4.77;2.63;;;5.80;99.90;;;;;;5089817;28;20444;-68
2021/12/12 10:08:44;;;;;;;5.27;2.30;;;5.70;99.90;;;;;;5089593;28;20522;-68
2021/12/12 10:11:23;;;;;;;4.07;1.80;;;5.60;99.90;;;;;;5089423;27;20459;-68
2021/12/12 10:13:58;;;;;;;5.13;2.37;;;5.50;99.90;;;;;;5089604;28;20476;-74
2021/12/12 10:16:34;;;;;;;6.60;2.80;;;5.40;99.90;;;;;;5089474;28;20475;-75
2021/12/12 10:19:05;;;;;;;4.83;2.70;;;5.30;99.90;;;;;;5089735;28;20488;-80
2021/12/12 10:21:39;;;;;;;5.50;2.67;;;5.40;99.90;;;;;;5089576;28;20448;-74
2021/12/12 10:24:18;;;;;;;5.30;2.80;;;5.40;99.90;;;;;;5089048;28;20454;-75
2021/12/12 10:26:54;;;;;;;5.60;3.10;;;5.40;99.90;;;;;;5089672;28;20797;-76
2021/12/12 10:29:24;;;;;;;7.30;3.20;;;5.60;99.90;;;;;;5089883;28;20455;-77
2021/12/12 10:31:58;;;;;;;6.57;3.30;;;5.60;99.90;;;;;;5089202;28;20467;-77
2021/12/12 10:34:29;;;;;;;4.20;2.40;;;5.80;99.90;;;;;;5089207;28;20457;-72
2021/12/12 10:37:05;;;;;;;4.70;2.63;;;5.80;99.90;;;;;;5089576;28;20559;-74
2021/12/12 10:39:35;;;;;;;3.67;2.07;;;5.70;99.90;;;;;;5089586;28;20460;-73
2021/12/12 10:42:07;;;;;;;4.73;2.53;;;5.60;99.90;;;;;;5089063;28;20541;-77
2021/12/12 10:44:37;;;;;;;3.70;2.30;;;5.70;99.90;;;;;;5089221;28;20516;-75
2021/12/12 10:47:17;;;;;;;4.87;2.97;;;5.70;99.90;;;;;;5089278;28;20507;-77
2021/12/12 10:50:07;;;;;;;4.23;2.60;;;5.50;99.90;;;;;;5089893;28;20452;-71
2021/12/12 10:52:40;;;;;;;5.23;3.33;;;5.60;99.90;;;;;;5088908;28;20553;-72
2021/12/12 10:55:10;;;;;;;4.80;2.60;;;5.50;99.90;;;;;;5089404;28;20483;-73
2021/12/12 10:57:39;;;;;;;4.70;2.90;;;4.60;99.90;;;;;;5089074;28;20941;-73
2021/12/12 11:00:15;;;;;;;5.67;3.00;;;5.40;99.90;;;;;;5088754;28;20509;-72
2021/12/12 11:02:50;;;;;;;4.70;3.50;;;5.40;99.90;;;;;;5089120;28;20467;-73
2021/12/12 11:05:44;;;;;;;6.30;4.03;;;5.30;99.90;;;;;;5088979;28;20462;-70
2021/12/12 11:08:32;;;;;;;5.37;3.03;;;5.30;99.90;;;;;;5089165;28;20476;-74
2021/12/12 11:11:02;;;;;;;4.70;3.07;;;5.20;99.90;;;;;;5089345;28;20580;-72
2021/12/12 11:13:34;;;;;;;5.80;2.87;;;5.40;99.90;;;;;;5088486;28;20894;-70
2021/12/12 11:16:12;;;;;;;5.93;3.73;;;5.60;99.90;;;;;;5088874;28;20448;-74
2021/12/12 11:18:45;;;;;;;3.70;2.10;;;5.60;99.90;;;;;;5088829;28;21076;-73
2021/12/12 11:21:18;;;;;;;4.77;2.90;;;5.50;99.90;;;;;;5089022;28;20520;-74
2021/12/12 11:23:51;;;;;;;5.40;2.50;;;5.50;99.90;;;;;;5088619;28;20456;-72
2021/12/12 11:26:22;;;;;;;7.20;3.03;;;5.20;99.90;;;;;;5089142;28;20539;-71
2021/12/12 11:28:54;;;;;;;4.23;2.40;;;5.10;99.90;;;;;;5089008;28;20455;-72
2021/12/12 11:31:25;;;;;;;4.40;2.53;;;5.10;99.90;;;;;;5088991;28;20452;-72
2021/12/12 11:33:55;;;;;;;6.50;3.53;;;5.10;99.90;;;;;;5089041;28;20451;-72
2021/12/12 11:36:27;;;;;;;6.73;3.17;;;5.10;99.90;;;;;;5088750;28;20876;-72
2021/12/12 11:39:05;;;;;;;5.77;3.27;;;5.20;99.90;;;;;;5088852;28;20526;-72
2021/12/12 11:41:38;;;;;;;6.37;3.60;;;5.10;99.90;;;;;;5089020;28;20555;-72
2021/12/12 11:44:16;;;;;;;4.17;2.90;;;4.90;99.90;;;;;;5088862;28;20957;-72
2021/12/12 11:46:50;;;;;;;4.73;3.20;;;4.70;99.90;;;;;;5092276;28;20901;-72
2021/12/12 11:49:24;;;;;;;4.80;3.10;;;4.60;99.90;;;;;;5092416;28;20925;-72
2021/12/12 11:51:55;;;;;;;5.53;3.73;;;4.50;99.90;;;;;;5092587;28;20452;-72
2021/12/12 11:54:34;;;;;;;7.60;3.73;;;4.60;99.90;;;;;;5092272;28;20444;-72
2021/12/12 11:57:06;;;;;;;5.07;3.43;;;4.60;99.90;;;;;;5092060;28;20924;-67
2021/12/12 11:59:41;;;;;;;5.20;3.70;;;4.40;99.90;;;;;;5091939;28;20488;-75
2021/12/12 12:02:26;;;;;;;5.77;3.50;;;4.30;99.90;;;;;;5092023;28;20542;-73
2021/12/12 12:05:06;;;;;;;6.20;4.13;;;4.40;99.90;;;;;;5092173;28;20512;-73
2021/12/12 12:07:50;;;;;;;6.63;4.00;;;4.40;99.90;;;;;;5091528;28;20482;-74
2021/12/12 12:10:34;;;;;;;5.03;3.53;;;4.50;99.90;;;;;;5091797;28;20450;-73
2021/12/12 12:13:32;;;;;;;9.37;3.70;;;4.50;99.90;;;;;;5091201;28;21056;-74
2021/12/12 12:16:05;;;;;;;4.73;2.93;;;4.50;99.90;;;;;;5091344;28;20460;-72
2021/12/12 12:18:42;;;;;;;5.83;3.23;;;4.50;99.90;;;;;;5091448;28;20519;-72
2021/12/12 12:21:19;;;;;;;5.17;3.47;;;4.50;99.90;;;;;;5091078;28;20880;-72
2021/12/12 12:26:55;;;;;;;5.63;3.43;;;4.80;99.90;;;;;;5089544;28;20454;-72
2021/12/12 12:30:04;;;;;;;5.93;4.00;;;4.50;99.90;;;;;;5091523;28;20451;-73
2021/12/12 12:33:07;;;;;;;6.97;4.43;;;4.60;99.90;;;;;;5079937;28;20952;-73
2021/12/12 12:36:48;;;;;;;5.37;3.63;;;4.50;99.90;;;;;;5091597;28;20505;-73
2021/12/12 12:40:00;;;;;;;5.93;3.20;;;4.50;99.90;;;;;;5091145;28;20494;-71
2021/12/12 12:43:10;;;;;;;5.20;3.63;;;4.50;99.90;;;;;;5091300;28;20451;-70
2021/12/12 12:46:26;;;;;;;5.60;3.43;;;4.40;99.90;;;;;;5091235;28;20446;-68
2021/12/12 12:49:30;;;;;;;4.50;2.97;;;4.30;99.90;;;;;;5091221;28;20957;-68
2021/12/12 12:52:39;;;;;;;4.30;3.03;;;4.30;99.90;;;;;;5091079;28;20446;-68
2021/12/12 12:55:29;;;;;;;5.57;3.67;;;4.10;99.90;;;;;;5091117;28;20459;-68
2021/12/12 12:58:08;;;;;;;4.93;3.07;;;4.10;99.90;;;;;;5090509;28;20980;-66
2021/12/12 13:00:37;;;;;;;4.17;2.53;;;4.10;99.90;;;;;;5090852;28;20559;-66
2021/12/12 13:03:26;;;;;;;5.93;3.47;;;4.10;99.90;;;;;;5091244;28;20479;-74
2021/12/12 13:06:33;;;;;;;5.50;3.23;;;4.10;99.90;;;;;;5090482;28;20464;-76
2021/12/12 13:09:21;;;;;;;5.30;3.80;;;4.00;99.90;;;;;;5091025;28;20443;-75
2021/12/12 13:12:33;;;;;;;4.90;3.20;;;4.00;99.90;;;;;;5090627;28;20459;-77
2021/12/12 13:15:12;;;;;;;5.60;4.20;;;4.10;99.90;;;;;;5079654;28;20456;-79
2021/12/12 13:17:53;;;;;;;6.00;3.93;;;4.00;99.90;;;;;;5091353;28;20797;-78
2021/12/12 13:20:36;;;;;;;5.10;3.70;;;4.20;99.90;;;;;;5090283;28;20542;-78
2021/12/12 13:23:32;;;;;;;5.40;3.77;;;4.30;99.90;;;;;;5089992;28;20458;-78
2021/12/12 13:26:07;;;;;;;6.57;4.00;;;4.30;99.90;;;;;;5072506;28;21001;-80
2021/12/12 13:28:52;;;;;;;6.10;3.80;;;4.20;99.90;;;;;;5090749;28;20474;-78
2021/12/12 13:31:33;;;;;;;5.77;4.27;;;4.00;99.90;;;;;;5090880;28;20448;-77
2021/12/12 13:34:10;;;;;;;8.13;4.20;;;4.20;99.90;;;;;;5090777;28;20502;-77
2021/12/12 13:36:50;;;;;;;5.90;3.23;;;4.20;99.90;;;;;;5089843;28;20517;-78
2021/12/12 13:39:26;;;;;;;4.50;3.50;;;4.00;99.90;;;;;;5090166;28;20522;-76
2021/12/12 13:42:17;;;;;;;5.93;3.90;;;4.00;99.90;;;;;;5090366;28;20457;-74
2021/12/12 13:45:03;;;;;;;4.80;3.53;;;4.10;99.90;;;;;;5090331;28;20454;-73
2021/12/12 13:47:51;;;;;;;4.80;3.53;;;4.20;99.90;;;;;;5090055;28;20470;-77